Saint Davids Church, Virginia
Current Conditions -  °F | °C
As of 8:15 PM on Saturday 22 Nov 2014 (Local Time) from KLUA Reporting Station
Broken Clouds Broken Clouds  
Wind Chill: 41°   Ceiling: 11000
Heat Index: 46°   Visibility: 10mi
Dew Point: 23°   Wind: 10mph
Humidity: 40%   Direction: 210°SSW
Pressure: 30.23"   Gusts: NA
Location:  38.7975°N, 78.4577°W
Report Text: KLUA 230115Z AUTO 21009KT 10SM BKN110 08/M05 A3023 RMK AO2
Loading
Personal Weather Stations






























Interactive Weather Map New forecast layout! Learn more

10-Day Weather Forecast

Advertisements
Track Severe Weather on mobile